Time;durP1;ratioP1;P1;durP2;ratioP2;P2;SDS_P1;SDS_P2;PMS_P1;PMS_P2;Temp;Humidity;BMP_temperature;BMP_pressure;BME280_temperature;BME280_humidity;BME280_pressure;Samples;Min_cycle;Max_cycle;Signal;HPM_P1;HPM_P2
2022/07/02 00:01:24;;;;;;;2.90;2.05;;;17.20;99.90;;;;;;5070503;28;20620;-68
2022/07/02 00:03:53;;;;;;;5.22;1.60;;;17.10;99.90;;;;;;5070448;28;20241;-69
2022/07/02 00:06:21;;;;;;;3.40;1.25;;;17.20;99.90;;;;;;5070600;28;20210;-68
2022/07/02 00:08:48;;;;;;;2.28;1.42;;;17.20;99.90;;;;;;5070063;28;20736;-69
2022/07/02 00:11:15;;;;;;;2.22;1.88;;;17.20;99.90;;;;;;5070523;28;20279;-69
2022/07/02 00:13:43;;;;;;;1.23;1.13;;;17.20;99.90;;;;;;5070867;28;20279;-69
2022/07/02 00:16:10;;;;;;;1.85;1.50;;;17.20;99.90;;;;;;5070139;28;20765;-69
2022/07/02 00:18:37;;;;;;;3.65;1.35;;;17.30;99.90;;;;;;5070402;28;20241;-69
2022/07/02 00:21:06;;;;;;;1.85;1.20;;;17.30;99.90;;;;;;5070027;28;20635;-69
2022/07/02 00:23:33;;;;;;;2.95;1.30;;;17.20;99.90;;;;;;5070218;28;20213;-68
2022/07/02 00:26:08;;;;;;;1.70;1.30;;;17.10;99.90;;;;;;5069225;28;20751;-68
2022/07/02 00:28:42;;;;;;;1.60;1.38;;;17.00;99.90;;;;;;5070487;28;20255;-68
2022/07/02 00:31:09;;;;;;;1.98;1.60;;;17.00;99.90;;;;;;5069869;28;20207;-69
2022/07/02 00:33:36;;;;;;;2.25;1.40;;;17.10;99.90;;;;;;5070398;28;20585;-69
2022/07/02 00:36:05;;;;;;;1.52;1.35;;;17.20;99.90;;;;;;5069645;28;20709;-69
2022/07/02 00:38:32;;;;;;;2.65;1.55;;;17.10;99.90;;;;;;5070459;28;20691;-69
2022/07/02 00:41:02;;;;;;;1.25;1.05;;;17.00;99.90;;;;;;5069581;28;20206;-68
2022/07/02 00:43:29;;;;;;;2.42;1.70;;;16.90;99.90;;;;;;5070325;28;20245;-68
2022/07/02 00:45:59;;;;;;;1.45;1.33;;;16.80;99.90;;;;;;5069953;28;20278;-68
2022/07/02 00:48:27;;;;;;;1.40;1.30;;;16.80;99.90;;;;;;5070450;28;20210;-68
2022/07/02 00:50:54;;;;;;;2.15;1.77;;;16.70;99.90;;;;;;5069504;28;20210;-69
2022/07/02 00:53:22;;;;;;;1.95;1.45;;;16.60;99.90;;;;;;5070079;28;20669;-69
2022/07/02 00:55:56;;;;;;;2.30;1.77;;;16.50;99.90;;;;;;5068457;28;20670;-68
2022/07/02 00:58:23;;;;;;;2.75;1.92;;;16.50;99.90;;;;;;5070076;28;20202;-69
2022/07/02 01:00:50;;;;;;;4.22;1.85;;;16.50;99.90;;;;;;5070125;28;20206;-69
2022/07/02 01:03:20;;;;;;;4.13;3.00;;;16.50;99.90;;;;;;5070165;28;20256;-69
2022/07/02 01:05:50;;;;;;;10.15;7.47;;;16.50;99.90;;;;;;5067922;28;20686;-69
2022/07/02 01:11:05;;;;;;;22.88;15.15;;;16.30;99.90;;;;;;5074191;28;20259;-69
2022/07/02 01:13:33;;;;;;;12.85;8.82;;;16.30;99.90;;;;;;5089592;28;20623;-69
2022/07/02 01:16:00;;;;;;;9.00;6.30;;;16.20;99.90;;;;;;5076619;28;20230;-69
2022/07/02 01:18:27;;;;;;;7.32;4.18;;;16.20;99.90;;;;;;5090092;28;20241;-69
2022/07/02 01:20:54;;;;;;;7.10;5.03;;;16.20;99.90;;;;;;5089318;28;20197;-69
2022/07/02 01:23:22;;;;;;;4.82;3.65;;;16.10;99.90;;;;;;5078705;28;20263;-69
2022/07/02 01:25:50;;;;;;;3.03;2.63;;;16.10;99.90;;;;;;5086815;28;20202;-69
2022/07/02 01:28:17;;;;;;;3.42;2.60;;;16.00;99.90;;;;;;5090195;28;20202;-69
2022/07/02 01:30:44;;;;;;;4.18;2.38;;;15.90;99.90;;;;;;5090062;28;20646;-69
2022/07/02 01:33:11;;;;;;;2.63;1.83;;;15.90;99.90;;;;;;5090024;28;20630;-69
2022/07/02 01:35:39;;;;;;;2.88;1.98;;;15.90;99.90;;;;;;5089359;28;20229;-69
2022/07/02 01:38:05;;;;;;;3.10;2.50;;;15.90;99.90;;;;;;5092734;28;20233;-69
2022/07/02 01:40:34;;;;;;;3.35;2.08;;;15.80;99.90;;;;;;5081174;28;20210;-69
2022/07/02 01:43:01;;;;;;;3.25;2.20;;;15.80;99.90;;;;;;5091306;28;20210;-69
2022/07/02 01:45:28;;;;;;;2.65;1.90;;;15.80;99.90;;;;;;5093866;28;20210;-69
2022/07/02 01:47:55;;;;;;;2.35;2.15;;;15.70;99.90;;;;;;5092991;28;20210;-69
2022/07/02 01:50:22;;;;;;;6.32;3.03;;;15.70;99.90;;;;;;5093106;28;20209;-72
2022/07/02 01:52:50;;;;;;;1.55;1.45;;;15.60;99.90;;;;;;5092616;28;20769;-71
2022/07/02 01:55:17;;;;;;;3.55;2.10;;;15.40;99.90;;;;;;5093045;28;20240;-71
2022/07/02 01:57:46;;;;;;;2.65;1.83;;;15.40;99.90;;;;;;5093265;28;20209;-72
2022/07/02 02:00:14;;;;;;;2.28;2.08;;;15.30;99.90;;;;;;5079409;28;20201;-70
2022/07/02 02:02:41;;;;;;;3.20;1.90;;;15.40;99.90;;;;;;5093174;28;20580;-71
2022/07/02 02:05:08;;;;;;;4.20;1.90;;;15.40;99.90;;;;;;5092364;28;20263;-70
2022/07/02 02:07:36;;;;;;;1.67;1.58;;;15.30;99.90;;;;;;5093022;28;20266;-72
2022/07/02 02:10:03;;;;;;;2.10;1.88;;;15.30;99.90;;;;;;5092779;28;20284;-71
2022/07/02 02:12:30;;;;;;;4.80;1.70;;;15.30;99.90;;;;;;5092929;28;20209;-71
2022/07/02 02:14:58;;;;;;;2.83;1.67;;;15.30;99.90;;;;;;5077867;28;20302;-72
2022/07/02 02:17:25;;;;;;;1.65;1.42;;;15.30;99.90;;;;;;5092500;28;20235;-71
2022/07/02 02:19:52;;;;;;;2.75;1.90;;;15.30;99.90;;;;;;5092677;28;20209;-71
2022/07/02 02:22:19;;;;;;;3.30;1.95;;;15.20;99.90;;;;;;5092649;28;20205;-71
2022/07/02 02:24:46;;;;;;;3.20;1.98;;;15.10;99.90;;;;;;5092714;28;20259;-72
2022/07/02 02:27:13;;;;;;;1.83;1.63;;;15.10;99.90;;;;;;5092868;28;20255;-71
2022/07/02 02:29:40;;;;;;;4.47;2.10;;;15.20;99.90;;;;;;5092837;28;20209;-72
2022/07/02 02:32:09;;;;;;;2.25;2.05;;;15.20;99.90;;;;;;5091956;28;20561;-72
2022/07/02 02:34:36;;;;;;;2.97;1.80;;;15.10;99.90;;;;;;5092562;28;20255;-71
2022/07/02 02:37:03;;;;;;;1.80;1.63;;;15.00;99.90;;;;;;5091802;28;20287;-71
2022/07/02 02:39:30;;;;;;;2.17;1.63;;;15.10;99.90;;;;;;5092555;28;20241;-71
2022/07/02 02:41:56;;;;;;;5.50;2.00;;;15.10;99.90;;;;;;5091792;28;20209;-72
2022/07/02 02:44:23;;;;;;;2.95;1.80;;;15.00;99.90;;;;;;5092353;28;20620;-71
2022/07/02 02:46:50;;;;;;;2.35;1.73;;;15.00;99.90;;;;;;5091622;28;20209;-70
2022/07/02 02:49:19;;;;;;;3.17;1.85;;;15.00;99.90;;;;;;5091296;28;20254;-70
2022/07/02 02:51:46;;;;;;;1.55;1.45;;;15.00;99.90;;;;;;5092206;28;20209;-71
2022/07/02 02:54:13;;;;;;;2.08;1.88;;;14.90;99.90;;;;;;5092237;28;20250;-71
2022/07/02 02:56:40;;;;;;;1.98;1.73;;;14.90;99.90;;;;;;5092266;28;20583;-71
2022/07/02 02:59:07;;;;;;;8.18;2.95;;;14.80;99.90;;;;;;5091522;28;20681;-70
2022/07/02 03:01:34;;;;;;;2.85;2.08;;;14.90;99.90;;;;;;5064246;28;20715;-71
2022/07/02 03:04:00;;;;;;;2.17;1.52;;;14.90;99.90;;;;;;5091741;28;20283;-71
2022/07/02 03:06:29;;;;;;;1.60;1.50;;;15.00;99.90;;;;;;5091769;28;20205;-71
2022/07/02 03:08:56;;;;;;;2.22;2.03;;;15.00;99.90;;;;;;5091387;28;20213;-71
2022/07/02 03:11:23;;;;;;;2.25;2.05;;;14.90;99.90;;;;;;5091422;28;20207;-71
2022/07/02 03:13:49;;;;;;;2.30;1.90;;;14.90;99.90;;;;;;5086287;28;20199;-71
2022/07/02 03:16:16;;;;;;;1.77;1.63;;;14.90;99.90;;;;;;5082637;28;20225;-71
2022/07/02 03:18:43;;;;;;;5.15;1.90;;;14.90;99.90;;;;;;5091719;28;20201;-71
2022/07/02 03:21:10;;;;;;;3.42;1.70;;;14.70;99.90;;;;;;5091405;28;20201;-70
2022/07/02 03:23:39;;;;;;;1.83;1.48;;;14.80;99.90;;;;;;5091477;28;20264;-70
2022/07/02 03:26:06;;;;;;;2.60;2.15;;;14.90;99.90;;;;;;5091043;28;20201;-70
2022/07/02 03:28:33;;;;;;;5.18;2.30;;;14.90;99.90;;;;;;5091435;28;20206;-70
2022/07/02 03:31:00;;;;;;;2.50;2.00;;;14.80;99.90;;;;;;5090757;28;20205;-70
2022/07/02 03:33:27;;;;;;;2.50;2.28;;;14.80;99.90;;;;;;5091580;28;20259;-70
2022/07/02 03:35:54;;;;;;;4.65;2.67;;;14.80;99.90;;;;;;5090971;28;20229;-70
2022/07/02 03:38:21;;;;;;;5.18;1.83;;;14.90;99.90;;;;;;5091274;28;20574;-70
2022/07/02 03:40:49;;;;;;;2.90;2.38;;;14.60;99.90;;;;;;5090612;28;20263;-72
2022/07/02 03:43:16;;;;;;;2.42;2.05;;;14.50;99.90;;;;;;5091058;28;20263;-71
2022/07/02 03:45:43;;;;;;;2.25;1.90;;;14.50;99.90;;;;;;5091291;28;20209;-73
2022/07/02 03:48:11;;;;;;;2.85;2.65;;;14.50;99.90;;;;;;5091283;28;20219;-72
2022/07/02 03:50:40;;;;;;;3.15;2.50;;;14.50;99.90;;;;;;5090893;28;20205;-72
2022/07/02 03:53:07;;;;;;;3.05;2.13;;;14.60;99.90;;;;;;5090728;28;20210;-72
2022/07/02 03:55:34;;;;;;;10.75;3.17;;;14.60;99.90;;;;;;5091266;28;20213;-72
2022/07/02 03:58:02;;;;;;;2.67;2.15;;;14.70;99.90;;;;;;5090433;28;20730;-72
2022/07/02 04:00:29;;;;;;;3.80;2.45;;;14.60;99.90;;;;;;5091013;28;20266;-71
2022/07/02 04:02:56;;;;;;;3.65;2.17;;;14.70;99.90;;;;;;5090332;28;20641;-71
2022/07/02 04:05:23;;;;;;;4.65;2.33;;;14.60;99.90;;;;;;5090806;28;20217;-72
2022/07/02 04:07:50;;;;;;;3.35;1.90;;;14.60;99.90;;;;;;5090010;28;20697;-72
2022/07/02 04:10:17;;;;;;;3.70;2.35;;;14.50;99.90;;;;;;5091029;28;20583;-71
2022/07/02 04:12:45;;;;;;;4.80;2.28;;;14.50;99.90;;;;;;5090661;28;20681;-72
2022/07/02 04:15:13;;;;;;;2.45;2.00;;;14.40;99.90;;;;;;5076613;28;20209;-72
2022/07/02 04:17:40;;;;;;;4.88;4.10;;;14.50;99.90;;;;;;5090925;28;20229;-72
2022/07/02 04:20:08;;;;;;;3.75;2.03;;;14.50;99.90;;;;;;5089967;28;20210;-71
2022/07/02 04:22:35;;;;;;;3.83;2.30;;;14.50;99.90;;;;;;5090990;28;20206;-71
2022/07/02 04:25:02;;;;;;;2.47;2.10;;;14.60;99.90;;;;;;5090265;28;20262;-71
2022/07/02 04:27:29;;;;;;;3.22;2.47;;;14.60;99.90;;;;;;5090567;28;20210;-71
2022/07/02 04:29:56;;;;;;;7.28;2.60;;;14.60;99.90;;;;;;5089984;28;20213;-71
2022/07/02 04:32:24;;;;;;;4.30;2.22;;;14.70;99.90;;;;;;5090492;28;20205;-71
2022/07/02 04:34:51;;;;;;;3.85;3.20;;;14.60;99.90;;;;;;5090003;28;20205;-71
2022/07/02 04:37:18;;;;;;;2.53;2.08;;;14.60;99.90;;;;;;5090419;28;20278;-70
2022/07/02 04:39:45;;;;;;;3.17;2.53;;;14.60;99.90;;;;;;5090879;28;20205;-71
2022/07/02 04:42:12;;;;;;;5.07;2.90;;;14.50;99.90;;;;;;5090430;28;20217;-70
2022/07/02 04:44:39;;;;;;;3.47;2.58;;;14.60;99.90;;;;;;5090917;28;20205;-70
2022/07/02 04:47:06;;;;;;;3.78;2.22;;;14.60;99.90;;;;;;5090003;28;20227;-70
2022/07/02 04:49:35;;;;;;;3.83;2.42;;;14.50;99.90;;;;;;5090125;28;20262;-70
2022/07/02 04:52:02;;;;;;;2.75;2.38;;;14.60;99.90;;;;;;5090172;28;20201;-70
2022/07/02 04:54:29;;;;;;;5.30;3.55;;;14.60;99.90;;;;;;5090355;28;20201;-70
2022/07/02 04:56:55;;;;;;;2.92;2.65;;;14.60;99.90;;;;;;5089278;28;20646;-70
2022/07/02 04:59:22;;;;;;;3.72;2.67;;;14.70;99.90;;;;;;5090244;28;20206;-70
2022/07/02 05:01:51;;;;;;;4.65;3.08;;;14.80;99.90;;;;;;5089501;28;20639;-70
2022/07/02 05:04:18;;;;;;;3.05;2.53;;;14.80;99.90;;;;;;5090278;28;20209;-70
2022/07/02 05:06:46;;;;;;;4.82;3.05;;;14.90;99.90;;;;;;5090320;28;20214;-70
2022/07/02 05:09:13;;;;;;;5.03;3.08;;;14.90;99.90;;;;;;5090722;28;20263;-70
2022/07/02 05:11:40;;;;;;;2.78;2.35;;;14.80;99.90;;;;;;5091139;28;20587;-70
2022/07/02 05:14:07;;;;;;;3.20;2.70;;;14.80;99.90;;;;;;5085814;28;20214;-70
2022/07/02 05:16:34;;;;;;;2.92;2.63;;;14.90;99.90;;;;;;5087488;28;20284;-70
2022/07/02 05:19:01;;;;;;;6.30;2.95;;;14.90;99.90;;;;;;5093786;28;20626;-71
2022/07/02 05:21:28;;;;;;;4.25;3.08;;;14.90;99.90;;;;;;5094227;28;20245;-70
2022/07/02 05:23:57;;;;;;;4.75;2.70;;;15.00;99.90;;;;;;5093409;28;20239;-71
2022/07/02 05:26:24;;;;;;;3.65;3.15;;;15.10;99.90;;;;;;5094069;28;20721;-70
2022/07/02 05:28:51;;;;;;;4.90;2.17;;;15.20;99.90;;;;;;5093024;28;20216;-68
2022/07/02 05:31:18;;;;;;;6.30;4.18;;;15.30;99.90;;;;;;5093799;28;20202;-69
2022/07/02 05:33:45;;;;;;;9.98;2.53;;;15.30;99.90;;;;;;5093462;28;20209;-70
2022/07/02 05:36:12;;;;;;;3.60;2.55;;;15.40;99.90;;;;;;5093887;28;20259;-71
2022/07/02 05:38:39;;;;;;;4.07;2.58;;;15.50;99.90;;;;;;5094051;28;20205;-70
2022/07/02 05:41:08;;;;;;;3.22;2.92;;;15.40;99.90;;;;;;5092852;28;20619;-71
2022/07/02 05:43:35;;;;;;;5.70;3.10;;;15.50;99.90;;;;;;5093528;28;20298;-71
2022/07/02 05:46:02;;;;;;;3.03;2.58;;;15.50;99.90;;;;;;5092753;28;20206;-70
2022/07/02 05:48:29;;;;;;;3.65;3.35;;;15.60;99.90;;;;;;5093576;28;20254;-70
2022/07/02 05:50:56;;;;;;;3.38;2.55;;;15.70;99.90;;;;;;5092886;28;20206;-70
2022/07/02 05:53:23;;;;;;;3.92;3.47;;;15.70;99.90;;;;;;5093395;28;20206;-70
2022/07/02 05:55:50;;;;;;;5.35;3.45;;;15.90;99.90;;;;;;5092453;28;20625;-71
2022/07/02 05:58:18;;;;;;;4.78;3.17;;;16.00;99.90;;;;;;5093119;28;20283;-70
2022/07/02 06:00:45;;;;;;;6.50;3.50;;;16.00;99.90;;;;;;5093460;28;20201;-70
2022/07/02 06:03:12;;;;;;;4.53;3.50;;;16.10;99.90;;;;;;5093356;28;20243;-70
2022/07/02 06:08:24;;;;;;;3.88;3.28;;;16.30;99.90;;;;;;5065680;28;20232;-69
2022/07/02 06:10:50;;;;;;;5.95;3.53;;;16.30;99.90;;;;;;5092458;28;20262;-69
2022/07/02 06:13:19;;;;;;;5.95;3.67;;;16.40;99.90;;;;;;5092087;28;20296;-70
2022/07/02 06:15:46;;;;;;;5.93;4.22;;;16.50;99.90;;;;;;5079774;28;20205;-69
2022/07/02 06:18:13;;;;;;;5.13;4.35;;;16.60;99.90;;;;;;5093232;28;20233;-69
2022/07/02 06:20:40;;;;;;;4.95;4.13;;;16.70;99.90;;;;;;5092933;28;20201;-70
2022/07/02 06:23:07;;;;;;;4.93;3.90;;;16.70;99.90;;;;;;5090913;28;20205;-71
2022/07/02 06:25:34;;;;;;;6.07;3.25;;;16.90;99.90;;;;;;5092389;28;20270;-70
2022/07/02 06:28:01;;;;;;;3.55;3.10;;;17.00;99.90;;;;;;5092467;28;20201;-70
2022/07/02 06:30:29;;;;;;;4.32;3.00;;;17.00;99.90;;;;;;5092597;28;20202;-69
2022/07/02 06:32:57;;;;;;;3.05;2.50;;;17.10;99.90;;;;;;5092157;28;20208;-70
2022/07/02 06:35:23;;;;;;;4.47;1.90;;;17.20;99.90;;;;;;5092321;28;20632;-70
2022/07/02 06:37:52;;;;;;;2.92;2.67;;;17.30;99.90;;;;;;5091979;28;20305;-70
2022/07/02 06:40:19;;;;;;;2.47;2.25;;;17.20;99.90;;;;;;5092115;28;20651;-71
2022/07/02 06:42:46;;;;;;;4.05;2.70;;;17.40;99.90;;;;;;5091994;28;20214;-71
2022/07/02 06:45:13;;;;;;;8.00;2.80;;;17.40;99.90;;;;;;5093061;28;20263;-70
2022/07/02 06:47:42;;;;;;;3.92;2.35;;;17.40;99.90;;;;;;5092387;28;20580;-70
2022/07/02 06:50:10;;;;;;;4.38;2.78;;;17.50;99.90;;;;;;5091880;28;20676;-69
2022/07/02 06:52:37;;;;;;;4.50;2.00;;;17.70;99.90;;;;;;5091937;28;20210;-70
2022/07/02 06:55:05;;;;;;;4.13;2.55;;;17.80;99.90;;;;;;5091405;28;20205;-70
2022/07/02 06:57:32;;;;;;;2.55;2.20;;;17.90;99.90;;;;;;5091877;28;20724;-71
2022/07/02 06:59:59;;;;;;;2.63;1.90;;;18.00;99.90;;;;;;5076904;28;20677;-71
2022/07/02 07:02:26;;;;;;;2.75;2.55;;;18.00;99.90;;;;;;5075257;28;20206;-71
2022/07/02 07:04:54;;;;;;;2.80;2.60;;;18.10;99.90;;;;;;5087645;28;20206;-72
2022/07/02 07:07:26;;;;;;;2.00;1.90;;;18.10;99.90;;;;;;5082033;28;20263;-73
2022/07/02 07:09:53;;;;;;;2.47;2.13;;;18.20;99.90;;;;;;5082493;28;20206;-70
2022/07/02 07:12:20;;;;;;;3.20;2.00;;;18.40;99.90;;;;;;5090592;28;20251;-70
2022/07/02 07:14:47;;;;;;;3.00;1.70;;;18.60;99.90;;;;;;5086480;28;20662;-70
2022/07/02 07:17:14;;;;;;;2.38;1.63;;;18.70;99.90;;;;;;5085883;28;20646;-70
2022/07/02 07:19:42;;;;;;;3.33;1.55;;;18.70;99.90;;;;;;5090222;28;20251;-70
2022/07/02 07:22:10;;;;;;;3.72;2.08;;;18.90;99.90;;;;;;5086188;28;20202;-70
2022/07/02 07:24:37;;;;;;;3.17;1.80;;;19.20;99.90;;;;;;5071514;28;20267;-71
2022/07/02 07:27:04;;;;;;;3.63;1.83;;;19.20;99.90;;;;;;5070408;28;20594;-71
2022/07/02 07:29:31;;;;;;;1.88;1.63;;;19.20;99.90;;;;;;5071193;28;20590;-71
2022/07/02 07:31:58;;;;;;;2.05;1.60;;;19.50;99.90;;;;;;5070428;28;20210;-70
2022/07/02 07:34:25;;;;;;;1.73;1.38;;;19.50;99.90;;;;;;5070748;28;20256;-71
2022/07/02 07:36:55;;;;;;;1.73;1.38;;;19.60;99.90;;;;;;5070646;28;20279;-71
2022/07/02 07:39:23;;;;;;;2.10;1.98;;;19.90;99.90;;;;;;5070763;28;20217;-71
2022/07/02 07:41:50;;;;;;;1.50;1.40;;;20.10;99.90;;;;;;5070649;28;20264;-71
2022/07/02 07:44:17;;;;;;;3.40;1.88;;;20.10;99.90;;;;;;5070669;28;21868;-71
2022/07/02 07:46:44;;;;;;;3.00;1.77;;;20.30;99.90;;;;;;5071114;28;20256;-70
2022/07/02 07:49:11;;;;;;;3.08;1.80;;;20.50;99.90;;;;;;5070679;28;20202;-71
2022/07/02 07:51:38;;;;;;;2.15;1.77;;;20.50;99.90;;;;;;5064044;28;20203;-69
2022/07/02 07:54:05;;;;;;;2.20;1.88;;;20.80;99.90;;;;;;5070408;28;20300;-70
2022/07/02 07:56:34;;;;;;;1.63;1.52;;;20.80;99.90;;;;;;5070554;28;20214;-71
2022/07/02 07:59:01;;;;;;;2.33;1.60;;;21.10;99.90;;;;;;5070181;28;20214;-71
2022/07/02 08:01:28;;;;;;;2.92;1.60;;;21.10;99.90;;;;;;5071320;28;20624;-71
2022/07/02 08:03:54;;;;;;;2.42;1.52;;;21.10;99.90;;;;;;5088174;28;20666;-71
2022/07/02 08:06:21;;;;;;;1.98;1.88;;;21.30;99.90;;;;;;5088115;28;20244;-71
2022/07/02 08:08:48;;;;;;;1.42;1.20;;;21.50;99.90;;;;;;5089592;28;20201;-71
2022/07/02 08:11:15;;;;;;;2.80;1.55;;;21.80;99.90;;;;;;5089801;28;20251;-70
2022/07/02 08:13:44;;;;;;;3.15;1.30;;;22.10;99.90;;;;;;5086505;28;20264;-71
2022/07/02 08:16:11;;;;;;;1.95;0.85;;;22.10;99.90;;;;;;5089018;28;20258;-72
2022/07/02 08:18:37;;;;;;;1.75;1.65;;;22.20;99.90;;;;;;5088353;28;20590;-72
2022/07/02 08:21:04;;;;;;;1.52;1.42;;;22.70;99.90;;;;;;5089160;28;20655;-71
2022/07/02 08:23:31;;;;;;;2.88;0.82;;;22.70;99.90;;;;;;5089029;28;20281;-72
2022/07/02 08:25:58;;;;;;;2.03;1.05;;;22.60;99.90;;;;;;5085484;28;20259;-73
2022/07/02 08:28:25;;;;;;;2.00;1.27;;;23.10;99.90;;;;;;5086900;28;20615;-71
2022/07/02 08:30:54;;;;;;;1.58;0.98;;;22.70;99.90;;;;;;5088032;28;20201;-71
2022/07/02 08:33:21;;;;;;;1.60;0.95;;;22.40;99.90;;;;;;5084126;28;20210;-72
2022/07/02 08:35:48;;;;;;;1.70;1.05;;;22.50;99.90;;;;;;5079876;28;20551;-72
2022/07/02 08:38:15;;;;;;;0.80;0.70;;;22.60;99.90;;;;;;5087679;28;20274;-71
2022/07/02 08:40:43;;;;;;;1.27;1.13;;;22.70;99.90;;;;;;5086464;28;20630;-72
2022/07/02 08:43:12;;;;;;;3.67;1.02;;;22.70;99.90;;;;;;5070349;28;20220;-72
2022/07/02 08:45:40;;;;;;;4.57;1.13;;;23.20;99.90;;;;;;5065955;28;20296;-70
2022/07/02 08:48:09;;;;;;;1.67;1.50;;;25.20;99.90;;;;;;5074579;28;20201;-72
2022/07/02 08:50:37;;;;;;;1.58;0.95;;;24.40;99.90;;;;;;5092287;28;20590;-71
2022/07/02 08:53:05;;;;;;;1.15;1.10;;;25.60;99.90;;;;;;5090882;28;21086;-71
2022/07/02 08:55:34;;;;;;;1.30;0.80;;;26.90;99.90;;;;;;5093374;28;20251;-73
2022/07/02 08:58:02;;;;;;;2.30;1.67;;;26.10;99.90;;;;;;5072902;28;20230;-71
2022/07/02 09:00:29;;;;;;;0.90;0.90;;;25.40;99.90;;;;;;5074160;28;20202;-71
2022/07/02 09:02:58;;;;;;;2.38;0.88;;;25.10;99.90;;;;;;5065721;28;20206;-71
2022/07/02 09:05:28;;;;;;;2.60;0.90;;;24.50;99.90;;;;;;5087304;28;20205;-70
2022/07/02 09:07:57;;;;;;;1.45;1.17;;;24.80;99.90;;;;;;5092331;28;20629;-72
2022/07/02 09:13:20;;;;;;;0.93;0.70;;;26.20;99.90;;;;;;5102571;27;20590;-73
2022/07/02 09:15:48;;;;;;;0.82;0.80;;;25.10;99.90;;;;;;5098310;28;20205;-70
2022/07/02 09:18:15;;;;;;;1.67;0.90;;;25.70;99.90;;;;;;5105716;28;20201;-76
2022/07/02 09:20:42;;;;;;;1.67;0.93;;;27.80;99.90;;;;;;5101912;28;20237;-72
2022/07/02 09:23:10;;;;;;;0.95;0.80;;;29.80;99.90;;;;;;5101992;28;20672;-72
2022/07/02 09:25:37;;;;;;;2.03;1.05;;;29.90;99.90;;;;;;5091886;28;20205;-69
2022/07/02 09:28:06;;;;;;;2.08;1.00;;;31.50;99.90;;;;;;5095620;28;20312;-74
2022/07/02 09:30:36;;;;;;;0.70;0.60;;;33.10;99.90;;;;;;5097557;28;20247;-76
2022/07/02 09:35:48;;;;;;;4.13;0.88;;;34.10;99.90;;;;;;5106481;28;20703;-69
2022/07/02 09:38:15;;;;;;;2.72;0.90;;;33.40;99.90;;;;;;5104578;28;20288;-71
2022/07/02 09:40:52;;;;;;;1.08;0.70;;;32.40;99.90;;;;;;5103071;28;20257;-70
2022/07/02 09:43:26;;;;;;;2.65;0.88;;;31.40;99.90;;;;;;5101894;28;20303;-79
2022/07/02 09:45:54;;;;;;;1.33;1.20;;;31.30;99.90;;;;;;5104283;28;20559;-76
2022/07/02 09:48:22;;;;;;;2.35;1.00;;;29.80;99.90;;;;;;5105891;28;20594;-72
2022/07/02 09:50:49;;;;;;;1.20;0.90;;;29.60;99.90;;;;;;5101688;28;20205;-72
2022/07/02 09:53:17;;;;;;;1.38;0.68;;;28.10;99.90;;;;;;5097691;28;20233;-74
2022/07/02 09:55:49;;;;;;;0.93;0.82;;;28.10;99.90;;;;;;5102494;28;20291;-71
2022/07/02 09:58:24;;;;;;;0.90;0.90;;;29.60;99.90;;;;;;5089977;28;20598;-74
2022/07/02 10:00:52;;;;;;;1.75;0.60;;;30.40;99.90;;;;;;5086512;28;20747;-73
2022/07/02 10:03:20;;;;;;;1.30;1.20;;;31.50;99.90;;;;;;5088080;28;20213;-74
2022/07/02 10:05:52;;;;;;;1.40;1.15;;;35.50;99.90;;;;;;5098868;28;20201;-73
2022/07/02 10:08:19;;;;;;;4.20;2.00;;;34.60;99.90;;;;;;5104074;28;20196;-70
2022/07/02 10:10:47;;;;;;;1.50;1.40;;;35.60;99.90;;;;;;5104355;28;20689;-74
2022/07/02 10:13:15;;;;;;;1.65;1.00;;;36.40;99.90;;;;;;5102645;28;20274;-74
2022/07/02 10:15:52;;;;;;;1.35;0.80;;;34.70;99.90;;;;;;5106354;28;20235;-71
2022/07/02 10:18:23;;;;;;;1.83;0.88;;;36.00;99.90;;;;;;5105753;28;20287;-69
2022/07/02 10:20:52;;;;;;;0.77;0.77;;;35.90;99.90;;;;;;5105364;28;20710;-69
2022/07/02 10:23:21;;;;;;;1.48;1.02;;;37.30;99.90;;;;;;5095657;28;20213;-76
2022/07/02 10:25:49;;;;;;;4.40;2.30;;;37.70;99.90;;;;;;5092507;28;20250;-80
2022/07/02 10:28:16;;;;;;;1.00;0.90;;;37.30;99.90;;;;;;5092735;28;20204;-74
2022/07/02 10:30:43;;;;;;;2.92;1.30;;;36.80;99.90;;;;;;5076273;28;20668;-77
2022/07/02 10:33:19;;;;;;;0.68;0.65;;;35.70;99.90;;;;;;5071793;28;20454;-75
2022/07/02 10:35:50;;;;;;;1.38;1.05;;;37.00;99.90;;;;;;5072844;28;20201;-74
2022/07/02 10:38:28;;;;;;;2.72;1.50;;;36.90;99.90;;;;;;5082586;28;20208;-72
2022/07/02 10:40:55;;;;;;;1.83;1.10;;;34.90;99.90;;;;;;5092795;28;20201;-72
2022/07/02 10:43:22;;;;;;;1.00;1.00;;;30.60;99.90;;;;;;5093131;28;20688;-72
2022/07/02 10:45:49;;;;;;;1.10;1.00;;;28.50;99.90;;;;;;5092720;28;20261;-71
2022/07/02 10:48:16;;;;;;;1.33;1.23;;;28.30;99.90;;;;;;5093163;28;20273;-70
2022/07/02 10:50:45;;;;;;;0.57;0.50;;;28.10;99.90;;;;;;5093271;28;20209;-72
2022/07/02 10:53:14;;;;;;;1.27;1.10;;;28.00;99.90;;;;;;5092827;28;20666;-71
2022/07/02 10:55:43;;;;;;;2.65;1.05;;;27.70;99.90;;;;;;5093099;28;20258;-72
2022/07/02 10:58:19;;;;;;;2.08;0.85;;;28.10;99.90;;;;;;5092788;28;20284;-71
2022/07/02 11:00:46;;;;;;;0.85;0.85;;;28.00;99.90;;;;;;5092522;28;20661;-71
2022/07/02 11:03:18;;;;;;;1.35;1.10;;;27.90;99.90;;;;;;5093112;28;20205;-71
2022/07/02 11:05:59;;;;;;;1.58;1.30;;;27.90;99.90;;;;;;5092988;28;20297;-71
2022/07/02 11:08:53;;;;;;;0.82;0.80;;;27.70;99.90;;;;;;5092719;28;20209;-71
2022/07/02 11:11:31;;;;;;;2.97;1.27;;;28.30;99.90;;;;;;5092513;28;20210;-71
2022/07/02 11:14:03;;;;;;;1.00;0.90;;;28.00;99.90;;;;;;5084564;28;20308;-70
2022/07/02 11:16:34;;;;;;;1.38;1.08;;;28.00;99.90;;;;;;5075208;28;20221;-71
2022/07/02 11:19:01;;;;;;;1.10;0.70;;;28.10;99.90;;;;;;5082592;28;20252;-72
2022/07/02 11:21:29;;;;;;;2.88;1.23;;;28.00;99.90;;;;;;5088376;28;20259;-72
2022/07/02 11:23:58;;;;;;;1.17;0.77;;;28.10;99.90;;;;;;5084790;28;20311;-72
2022/07/02 11:26:26;;;;;;;1.92;1.83;;;28.10;99.90;;;;;;5078120;28;20206;-72
2022/07/02 11:28:54;;;;;;;2.05;1.10;;;28.30;99.90;;;;;;5071237;28;20203;-71
2022/07/02 11:31:23;;;;;;;2.83;1.50;;;28.40;99.90;;;;;;5071934;28;20256;-72
2022/07/02 11:33:52;;;;;;;2.13;1.15;;;28.20;99.90;;;;;;5071517;28;20241;-71
2022/07/02 11:36:19;;;;;;;1.33;1.23;;;28.40;99.90;;;;;;5070899;28;20210;-71
2022/07/02 11:38:49;;;;;;;2.10;0.95;;;28.50;99.90;;;;;;5071646;28;20673;-70
2022/07/02 11:41:19;;;;;;;1.52;0.88;;;28.20;99.90;;;;;;5071774;28;20203;-71
2022/07/02 11:43:47;;;;;;;1.67;1.05;;;28.30;99.90;;;;;;5071341;28;20210;-71
2022/07/02 11:46:17;;;;;;;1.70;1.48;;;28.50;99.90;;;;;;5071330;28;20205;-71
2022/07/02 11:48:44;;;;;;;1.02;0.93;;;28.60;99.90;;;;;;5072127;28;20251;-71
2022/07/02 11:51:11;;;;;;;2.05;0.80;;;28.60;99.90;;;;;;5071185;28;20205;-73
2022/07/02 11:53:38;;;;;;;1.17;1.08;;;28.30;99.90;;;;;;5071480;28;20230;-72
2022/07/02 11:56:06;;;;;;;1.42;0.80;;;28.60;99.90;;;;;;5086754;28;20219;-73
2022/07/02 11:58:46;;;;;;;1.75;0.55;;;28.70;99.90;;;;;;5090886;28;20271;-71
2022/07/02 12:01:24;;;;;;;3.63;0.80;;;28.90;99.90;;;;;;5089078;28;20206;-70
2022/07/02 12:03:54;;;;;;;1.33;1.10;;;28.90;99.90;;;;;;5088373;28;20725;-71
2022/07/02 12:06:22;;;;;;;2.35;1.25;;;29.00;99.90;;;;;;5087453;28;20625;-71
2022/07/02 12:08:52;;;;;;;2.30;1.10;;;29.30;99.90;;;;;;5089211;28;20217;-71
2022/07/02 12:11:20;;;;;;;0.75;0.70;;;29.10;99.90;;;;;;5087349;28;20220;-72
2022/07/02 12:13:49;;;;;;;2.25;0.80;;;29.20;99.90;;;;;;5070526;28;20275;-71
2022/07/02 12:16:19;;;;;;;1.80;0.98;;;29.50;99.90;;;;;;5082620;28;20209;-71
2022/07/02 12:18:58;;;;;;;0.85;0.80;;;29.50;99.90;;;;;;5091262;28;20261;-71
2022/07/02 12:21:32;;;;;;;1.05;1.00;;;29.50;99.90;;;;;;5087255;28;20222;-71
2022/07/02 12:23:59;;;;;;;1.33;0.80;;;29.60;99.90;;;;;;5088131;28;20270;-72
2022/07/02 12:26:27;;;;;;;1.20;0.90;;;29.20;99.90;;;;;;5089822;28;20231;-72
2022/07/02 12:31:46;;;;;;;0.88;0.82;;;29.20;99.90;;;;;;5077949;28;20201;-71
2022/07/02 12:34:13;;;;;;;3.70;1.00;;;29.20;99.90;;;;;;5086608;28;20221;-71
2022/07/02 12:36:54;;;;;;;0.70;0.63;;;29.50;99.90;;;;;;5089404;28;20258;-71
2022/07/02 12:39:23;;;;;;;0.82;0.70;;;29.70;99.90;;;;;;5071427;28;20210;-71
2022/07/02 12:41:50;;;;;;;1.33;0.73;;;29.70;99.90;;;;;;5069978;28;20202;-72
2022/07/02 12:44:20;;;;;;;1.45;1.17;;;29.70;99.90;;;;;;5070508;28;20681;-70
2022/07/02 12:46:48;;;;;;;4.93;0.88;;;29.80;99.90;;;;;;5070376;28;20202;-70
2022/07/02 12:49:17;;;;;;;1.42;0.90;;;29.60;99.90;;;;;;5070472;28;20206;-70
2022/07/02 12:51:55;;;;;;;0.63;0.60;;;29.50;99.90;;;;;;5070532;28;20210;-70
2022/07/02 12:54:33;;;;;;;1.00;0.63;;;29.70;99.90;;;;;;5070349;28;20221;-71
2022/07/02 12:57:15;;;;;;;1.17;0.98;;;29.90;99.90;;;;;;5069651;28;20661;-71
2022/07/02 12:59:44;;;;;;;3.47;0.70;;;29.90;99.90;;;;;;5070538;28;20669;-71
2022/07/02 13:02:16;;;;;;;2.05;0.77;;;30.00;99.90;;;;;;5070146;28;20241;-72
2022/07/02 13:04:44;;;;;;;1.75;1.00;;;30.00;99.90;;;;;;5070538;28;20202;-72